Etusivu
METAR-TAF:

METAR-TAF

Lentoasemat :

Town MET

Windhoek, Namibia

Leveyspiiri: 22-34S, Pituuspiiri: 017-06E, korkeus merenpinnasta: 1725 m

Tämänhetkinen sää

Tämä raportti tehtiin 1 tunti ja 9 minuuttia sitten, kello 09.00 UTC
Tuuli 5 kn etelästä/kaakosta
Lämpötila 19°C
Kosteus 73%
Ilmanpaine 1019 hPa

METAR: FYWW 060900Z AUTO 15005KT //// // ////// 19/14 Q1019

Aika: 12:09 (10:09 UTC)


TAF: puuttuu

Säähavainnot ja -ennusteet yli 4000 lentoasemalta (METAR- ja TAF-raportit).

Käytössä olevat sääasemat on merkitty karttaan keltaisilla ja punaisilla pisteillä.

Aseta hiiri pisteen päälle nähdäksesi sääaseman nimen.

Klikkaa sitten nähdäksesi säähavainnot ja -ennusteet.

Kartan vaihtaminen: klikkaa mustalla rastilla varustettuja vihreitä pisteitä, niin voit zoomata sisään; viivalla varustettua vihreää pistettä, niin voit zoomata ulos tai vihreitä nuolia, niin pääset viereisille kartoille.


METAR-TAF: